createdAt,value
2023-04-08T00:00:47.402Z,7.34
2023-04-08T00:03:14.145Z,7.43
2023-04-08T00:05:40.929Z,7.64
2023-04-08T00:08:07.612Z,7.77
2023-04-08T00:10:34.312Z,7.99
2023-04-08T00:13:01.275Z,7.81
2023-04-08T00:15:27.937Z,7.77
2023-04-08T00:17:54.892Z,7.70
2023-04-08T00:20:22.805Z,7.76
2023-04-08T00:22:49.477Z,7.49
2023-04-08T00:25:16.216Z,7.34
2023-04-08T00:27:42.922Z,7.84
2023-04-08T00:30:10.281Z,7.54
2023-04-08T00:32:37.000Z,7.48
2023-04-08T00:35:03.845Z,7.96
2023-04-08T00:37:31.592Z,7.68
2023-04-08T00:39:58.291Z,7.20
2023-04-08T00:42:25.056Z,7.29
2023-04-08T00:44:51.707Z,7.76
2023-04-08T00:47:18.467Z,7.71
2023-04-08T00:49:45.193Z,7.92
2023-04-08T00:52:11.883Z,7.84
2023-04-08T00:54:38.794Z,7.39
2023-04-08T00:57:06.144Z,7.66
2023-04-08T00:59:33.474Z,7.49
2023-04-08T01:02:08.222Z,7.72
2023-04-08T01:04:44.730Z,7.37
2023-04-08T01:07:23.721Z,6.77
2023-04-08T01:09:52.429Z,6.80
2023-04-08T01:12:22.198Z,5.96
2023-04-08T01:14:48.893Z,6.46
2023-04-08T01:17:15.591Z,6.97
2023-04-08T01:19:42.488Z,6.96
2023-04-08T01:22:13.458Z,7.05
2023-04-08T01:24:42.243Z,7.22
2023-04-08T01:27:09.005Z,7.39
2023-04-08T01:29:35.700Z,7.58
2023-04-08T01:32:02.450Z,7.65
2023-04-08T01:34:29.137Z,7.82
2023-04-08T01:36:57.925Z,7.40
2023-04-08T01:39:25.074Z,7.56
2023-04-08T01:41:51.756Z,7.40
2023-04-08T01:44:18.413Z,7.46
2023-04-08T01:46:45.159Z,7.31
2023-04-08T01:49:11.886Z,7.53
2023-04-08T01:51:38.867Z,7.77
2023-04-08T01:54:05.677Z,7.54
2023-04-08T01:56:33.178Z,7.91
2023-04-08T01:58:59.871Z,7.64
2023-04-08T02:01:26.682Z,7.88
2023-04-08T02:03:56.548Z,7.60
2023-04-08T02:06:23.824Z,7.70
2023-04-08T02:08:50.804Z,7.90
2023-04-08T02:11:17.631Z,7.91
2023-04-08T02:13:44.363Z,7.81
2023-04-08T02:16:16.989Z,7.65
2023-04-08T02:18:44.790Z,7.68
2023-04-08T02:21:17.585Z,7.64
2023-04-08T02:23:46.593Z,7.77
2023-04-08T02:26:14.446Z,7.92
2023-04-08T02:28:42.140Z,7.69
2023-04-08T02:31:09.902Z,7.71
2023-04-08T02:33:37.299Z,7.66
2023-04-08T02:36:04.106Z,7.75
2023-04-08T02:38:31.009Z,7.93
2023-04-08T02:40:57.954Z,7.78
2023-04-08T02:43:32.421Z,7.81
2023-04-08T02:46:04.232Z,7.65
2023-04-08T02:48:31.428Z,7.74
2023-04-08T02:50:58.073Z,8.11
2023-04-08T02:53:24.801Z,7.43
2023-04-08T02:55:51.472Z,7.31
2023-04-08T02:58:18.190Z,7.35
2023-04-08T03:00:44.953Z,7.72
2023-04-08T03:03:11.863Z,7.36
2023-04-08T03:05:38.665Z,7.07
2023-04-08T03:08:06.911Z,7.17
2023-04-08T03:10:33.638Z,7.06
2023-04-08T03:13:00.323Z,7.25
2023-04-08T03:15:27.547Z,7.06
2023-04-08T03:17:54.333Z,6.73
2023-04-08T03:20:21.154Z,6.90
2023-04-08T03:22:47.807Z,7.27
2023-04-08T03:25:14.495Z,6.54
2023-04-08T03:27:41.176Z,7.15
2023-04-08T03:30:08.276Z,7.20
2023-04-08T03:32:35.235Z,7.51
2023-04-08T03:35:01.977Z,7.27
2023-04-08T03:37:28.672Z,7.26
2023-04-08T03:39:55.759Z,7.45
2023-04-08T03:42:22.539Z,7.80
2023-04-08T03:44:49.320Z,7.72
2023-04-08T03:47:16.102Z,7.31
2023-04-08T03:49:42.792Z,7.43
2023-04-08T03:52:09.513Z,7.70
2023-04-08T03:54:36.175Z,8.10
2023-04-08T03:57:02.944Z,8.24
2023-04-08T03:59:29.879Z,8.12
2023-04-08T04:01:56.696Z,7.93
2023-04-08T04:04:23.947Z,8.11
2023-04-08T04:06:50.815Z,8.08
2023-04-08T04:09:17.569Z,8.06
2023-04-08T04:11:44.294Z,7.88
2023-04-08T04:14:11.011Z,8.00
2023-04-08T04:16:37.660Z,7.99
2023-04-08T04:19:04.365Z,7.69
2023-04-08T04:21:31.456Z,7.74
2023-04-08T04:23:58.145Z,7.68
2023-04-08T04:26:24.880Z,7.32
2023-04-08T04:28:51.888Z,7.76
2023-04-08T04:31:27.708Z,7.79
2023-04-08T04:33:54.788Z,7.53
2023-04-08T04:36:21.464Z,6.96
2023-04-08T04:38:50.144Z,7.02
2023-04-08T04:41:17.188Z,6.50
2023-04-08T04:43:43.858Z,6.55
2023-04-08T04:46:10.984Z,6.14
2023-04-08T04:48:37.788Z,6.07
2023-04-08T04:51:04.594Z,6.14
2023-04-08T04:53:31.915Z,5.88
2023-04-08T04:55:58.733Z,5.00
2023-04-08T04:58:25.611Z,5.46
2023-04-08T05:00:52.325Z,4.88
2023-04-08T05:03:19.078Z,4.94
2023-04-08T05:05:46.204Z,5.28
2023-04-08T05:08:13.013Z,4.83
2023-04-08T05:10:40.971Z,4.68
2023-04-08T05:13:07.615Z,4.06
2023-04-08T05:15:34.304Z,4.80
2023-04-08T05:18:01.299Z,4.68
2023-04-08T05:20:28.036Z,4.65
2023-04-08T05:22:54.859Z,4.99
2023-04-08T05:25:21.732Z,4.75
2023-04-08T05:27:48.419Z,5.45
2023-04-08T05:30:15.169Z,5.82
2023-04-08T05:32:42.047Z,6.15
2023-04-08T05:35:09.851Z,5.91
2023-04-08T05:37:36.566Z,6.05
2023-04-08T05:40:03.826Z,5.84
2023-04-08T05:42:30.529Z,5.77
2023-04-08T05:44:57.197Z,5.32
2023-04-08T05:47:23.924Z,5.13
2023-04-08T05:49:51.293Z,5.25
2023-04-08T05:52:18.067Z,5.15
2023-04-08T05:54:44.828Z,4.93
2023-04-08T05:57:11.832Z,5.09
2023-04-08T05:59:38.624Z,5.59
2023-04-08T06:02:05.688Z,5.82
2023-04-08T06:04:32.711Z,5.54
2023-04-08T06:07:01.074Z,5.83
2023-04-08T06:09:27.784Z,5.14
2023-04-08T06:11:54.501Z,5.03
2023-04-08T06:14:21.194Z,5.53
2023-04-08T06:16:47.877Z,5.08
2023-04-08T06:19:14.585Z,5.22
2023-04-08T06:21:41.231Z,5.35
2023-04-08T06:24:07.938Z,5.62
2023-04-08T06:26:34.675Z,5.70
2023-04-08T06:29:02.136Z,5.41
2023-04-08T06:31:28.806Z,5.48
2023-04-08T06:33:56.147Z,5.56
2023-04-08T06:36:22.791Z,5.44
2023-04-08T06:38:49.617Z,5.50
2023-04-08T06:41:16.548Z,5.32
2023-04-08T06:43:43.186Z,5.52
2023-04-08T06:46:09.956Z,6.27
2023-04-08T06:48:37.922Z,5.92
2023-04-08T06:51:04.764Z,5.72
2023-04-08T06:53:33.034Z,5.91
2023-04-08T06:56:00.280Z,5.64
2023-04-08T06:58:27.476Z,5.67
2023-04-08T07:00:55.305Z,5.32
2023-04-08T07:03:22.627Z,5.96
2023-04-08T07:05:49.434Z,5.64
2023-04-08T07:08:16.111Z,5.58
2023-04-08T07:10:42.790Z,5.96
2023-04-08T07:13:09.785Z,5.84
2023-04-08T07:15:36.481Z,5.60
2023-04-08T07:18:04.802Z,5.75
2023-04-08T07:20:32.379Z,6.03
2023-04-08T07:22:59.107Z,6.05
2023-04-08T07:25:25.802Z,5.52
2023-04-08T07:27:53.047Z,5.67
2023-04-08T07:30:19.912Z,6.06
2023-04-08T07:32:46.656Z,6.05
2023-04-08T07:35:13.322Z,6.20
2023-04-08T07:37:40.003Z,6.49
2023-04-08T07:40:07.124Z,6.57
2023-04-08T07:42:33.802Z,6.50
2023-04-08T07:45:00.487Z,5.88
2023-04-08T07:47:27.381Z,5.86
2023-04-08T07:49:54.754Z,5.44
2023-04-08T07:52:21.684Z,5.40
2023-04-08T07:54:48.373Z,5.65
2023-04-08T07:57:15.224Z,5.74
2023-04-08T07:59:42.206Z,4.92
2023-04-08T08:02:09.057Z,5.23
2023-04-08T08:04:35.966Z,5.26
2023-04-08T08:07:02.745Z,4.55
2023-04-08T08:09:31.006Z,4.86
2023-04-08T08:11:58.824Z,4.88
2023-04-08T08:14:26.882Z,4.88
2023-04-08T08:16:54.498Z,5.02
2023-04-08T08:19:21.491Z,5.20
2023-04-08T08:21:48.223Z,5.24
2023-04-08T08:24:14.882Z,5.22
2023-04-08T08:26:42.035Z,4.92
2023-04-08T08:29:09.005Z,4.99
2023-04-08T08:31:35.877Z,5.12
2023-04-08T08:34:03.016Z,5.10
2023-04-08T08:36:29.792Z,5.42
2023-04-08T08:38:56.492Z,5.37
2023-04-08T08:41:23.229Z,5.37
2023-04-08T08:43:50.036Z,5.38
2023-04-08T08:46:18.897Z,4.74
2023-04-08T08:48:46.181Z,4.84
2023-04-08T08:51:13.450Z,5.42
2023-04-08T08:53:45.426Z,5.56
2023-04-08T08:58:42.143Z,5.93
2023-04-08T09:01:27.722Z,5.65
2023-04-08T09:04:26.930Z,5.88
2023-04-08T09:07:10.014Z,5.98
2023-04-08T09:09:52.871Z,5.90
2023-04-08T09:12:19.571Z,6.44
2023-04-08T09:14:46.681Z,6.01
2023-04-08T09:17:13.425Z,5.72
2023-04-08T09:19:40.224Z,6.32
2023-04-08T09:22:08.009Z,6.34
2023-04-08T09:24:35.119Z,6.31
2023-04-08T09:27:02.065Z,6.38
2023-04-08T09:29:31.397Z,6.71
2023-04-08T09:32:00.621Z,7.47
2023-04-08T09:34:28.635Z,7.14
2023-04-08T09:36:56.077Z,7.21
2023-04-08T09:39:23.064Z,6.82
2023-04-08T09:41:51.150Z,6.96
2023-04-08T09:44:19.594Z,6.88
2023-04-08T09:46:56.209Z,6.60
2023-04-08T09:49:26.132Z,7.31
2023-04-08T09:52:08.642Z,6.77
2023-04-08T09:54:41.205Z,6.89
2023-04-08T09:57:11.744Z,6.68
2023-04-08T09:59:38.903Z,6.63
2023-04-08T10:02:06.499Z,7.14
2023-04-08T10:04:33.441Z,7.59
2023-04-08T10:07:01.433Z,7.41
2023-04-08T10:09:28.212Z,6.91
2023-04-08T10:11:54.973Z,7.81
2023-04-08T10:14:22.462Z,7.62
2023-04-08T10:16:49.245Z,7.11
2023-04-08T10:19:34.807Z,7.65
2023-04-08T10:22:01.837Z,8.04
2023-04-08T10:24:28.511Z,8.30
2023-04-08T10:26:55.193Z,8.19
2023-04-08T10:29:21.968Z,8.90
2023-04-08T10:31:49.154Z,7.94
2023-04-08T10:34:24.812Z,8.62
2023-04-08T10:36:51.522Z,7.90
2023-04-08T10:39:18.299Z,7.94
2023-04-08T10:41:45.639Z,9.13
2023-04-08T10:44:21.408Z,8.20
2023-04-08T10:46:48.507Z,8.53
2023-04-08T10:49:15.835Z,8.33
2023-04-08T10:51:44.214Z,8.88
2023-04-08T10:54:14.553Z,8.45
2023-04-08T10:57:07.609Z,8.33
2023-04-08T10:59:34.379Z,7.64
2023-04-08T11:02:02.695Z,7.49
2023-04-08T11:04:29.841Z,7.41
2023-04-08T11:06:56.784Z,7.71
2023-04-08T11:09:23.467Z,8.18
2023-04-08T11:11:50.118Z,8.02
2023-04-08T11:14:17.562Z,7.23
2023-04-08T11:16:44.254Z,7.94
2023-04-08T11:19:10.951Z,7.49
2023-04-08T11:21:38.703Z,8.27
2023-04-08T11:24:16.748Z,8.24
2023-04-08T11:26:43.649Z,8.11
2023-04-08T11:29:14.252Z,8.30
2023-04-08T11:31:41.446Z,8.27
2023-04-08T11:34:08.428Z,7.75
2023-04-08T11:36:36.838Z,7.37
2023-04-08T11:39:10.589Z,7.97
2023-04-08T11:41:38.541Z,7.70
2023-04-08T11:44:07.107Z,7.56
2023-04-08T11:46:35.099Z,8.01
2023-04-08T11:49:06.501Z,7.73
2023-04-08T11:51:34.811Z,7.18
2023-04-08T11:54:04.699Z,6.05
2023-04-08T11:56:33.657Z,6.28
2023-04-08T11:59:00.594Z,6.63
2023-04-08T12:01:27.513Z,6.75
2023-04-08T12:04:01.500Z,7.30
2023-04-08T12:06:28.773Z,7.41
2023-04-08T12:08:56.079Z,7.51
2023-04-08T12:11:23.071Z,7.83
2023-04-08T12:13:51.005Z,8.12
2023-04-08T12:16:18.235Z,7.58
2023-04-08T12:18:45.054Z,7.75
2023-04-08T12:21:11.861Z,7.81
2023-04-08T12:23:38.550Z,7.72
2023-04-08T12:26:05.272Z,6.96
2023-04-08T12:28:31.941Z,6.85
2023-04-08T12:30:58.636Z,6.82
2023-04-08T12:33:25.439Z,6.73
2023-04-08T12:35:52.513Z,7.03
2023-04-08T12:38:19.184Z,6.94
2023-04-08T12:40:45.867Z,6.66
2023-04-08T12:43:12.900Z,6.78
2023-04-08T12:45:39.560Z,6.91
2023-04-08T12:48:06.406Z,6.60
2023-04-08T12:50:33.167Z,6.87
2023-04-08T12:52:59.881Z,7.06
2023-04-08T12:55:26.766Z,6.87
2023-04-08T12:57:53.494Z,6.78
2023-04-08T13:00:20.251Z,6.50
2023-04-08T13:02:47.078Z,6.66
2023-04-08T13:05:13.791Z,5.79
2023-04-08T13:07:40.639Z,6.24
2023-04-08T13:10:08.201Z,6.17
2023-04-08T13:12:34.916Z,6.43
2023-04-08T13:15:01.656Z,6.31
2023-04-08T13:17:28.477Z,6.33
2023-04-08T13:19:55.224Z,5.92
2023-04-08T13:22:21.888Z,6.28
2023-04-08T13:24:49.033Z,6.23
2023-04-08T13:27:15.772Z,6.35
2023-04-08T13:29:42.457Z,5.64
2023-04-08T13:32:09.224Z,5.74
2023-04-08T13:34:35.991Z,5.49
2023-04-08T13:37:03.356Z,5.41
2023-04-08T13:39:30.067Z,5.33
2023-04-08T13:41:57.092Z,5.66
2023-04-08T13:44:23.786Z,5.48
2023-04-08T13:46:50.490Z,5.56
2023-04-08T13:49:17.137Z,5.45
2023-04-08T13:51:43.995Z,5.55
2023-04-08T13:54:11.089Z,6.02
2023-04-08T13:56:37.770Z,6.34
2023-04-08T13:59:04.774Z,5.71
2023-04-08T14:01:31.924Z,5.56
2023-04-08T14:03:58.702Z,5.80
2023-04-08T14:06:25.373Z,5.81
2023-04-08T14:08:52.250Z,5.87
2023-04-08T14:11:19.099Z,5.77
2023-04-08T14:13:45.769Z,5.64
2023-04-08T14:16:12.427Z,5.91
2023-04-08T14:18:39.558Z,5.67
2023-04-08T14:21:07.534Z,5.90
2023-04-08T14:23:34.201Z,5.87
2023-04-08T14:26:01.703Z,6.46
2023-04-08T14:28:28.458Z,6.04
2023-04-08T14:30:55.152Z,6.16
2023-04-08T14:33:21.880Z,6.30
2023-04-08T14:35:48.548Z,6.01
2023-04-08T14:38:15.933Z,5.70
2023-04-08T14:40:42.613Z,5.87
2023-04-08T14:43:09.271Z,6.35
2023-04-08T14:45:36.293Z,6.16
2023-04-08T14:48:02.953Z,6.10
2023-04-08T14:50:30.727Z,6.23
2023-04-08T14:52:57.441Z,6.27
2023-04-08T14:55:24.164Z,5.99
2023-04-08T14:57:50.816Z,6.11
2023-04-08T15:00:17.518Z,6.27
2023-04-08T15:02:44.286Z,6.20
2023-04-08T15:05:11.083Z,5.91
2023-04-08T15:07:37.786Z,6.12
2023-04-08T15:10:04.646Z,6.18
2023-04-08T15:12:33.162Z,6.22
2023-04-08T15:14:59.872Z,5.64
2023-04-08T15:17:26.674Z,5.69
2023-04-08T15:19:53.407Z,5.54
2023-04-08T15:22:20.123Z,5.73
2023-04-08T15:24:48.044Z,5.48
2023-04-08T15:27:16.068Z,5.15
2023-04-08T15:29:43.021Z,5.38
2023-04-08T15:32:09.711Z,5.56
2023-04-08T15:34:36.563Z,5.62
2023-04-08T15:37:03.250Z,5.84
2023-04-08T15:39:29.906Z,5.59
2023-04-08T15:41:56.871Z,5.79
2023-04-08T15:44:24.338Z,6.09
2023-04-08T15:46:51.296Z,5.71
2023-04-08T15:49:17.984Z,5.35
2023-04-08T15:51:44.919Z,5.20
2023-04-08T15:54:11.895Z,5.71
2023-04-08T15:56:38.658Z,5.43
2023-04-08T15:59:05.821Z,5.09
2023-04-08T16:01:33.425Z,5.48
2023-04-08T16:04:00.311Z,5.55
2023-04-08T16:06:27.155Z,5.69
2023-04-08T16:08:53.858Z,5.73
2023-04-08T16:11:22.097Z,5.41
2023-04-08T16:13:48.786Z,5.56
2023-04-08T16:16:16.248Z,5.23
2023-04-08T16:18:46.055Z,4.67
2023-04-08T16:21:14.088Z,4.49
2023-04-08T16:23:41.496Z,4.80
2023-04-08T16:26:08.812Z,5.17
2023-04-08T16:28:35.677Z,4.90
2023-04-08T16:31:03.897Z,5.17
2023-04-08T16:33:31.031Z,5.19
2023-04-08T16:35:57.937Z,5.06
2023-04-08T16:38:25.118Z,4.99
2023-04-08T16:40:52.104Z,5.12
2023-04-08T16:43:18.791Z,5.48
2023-04-08T16:45:45.484Z,5.25
2023-04-08T16:48:12.922Z,5.27
2023-04-08T16:50:40.182Z,5.33
2023-04-08T16:53:06.900Z,5.13
2023-04-08T16:55:33.955Z,5.37
2023-04-08T16:58:01.407Z,5.44
2023-04-08T17:00:28.541Z,4.90
2023-04-08T17:02:56.878Z,4.90
2023-04-08T17:05:23.738Z,4.96
2023-04-08T17:07:50.474Z,4.87
2023-04-08T17:10:17.117Z,4.86
2023-04-08T17:12:43.783Z,5.07
2023-04-08T17:15:10.885Z,5.04
2023-04-08T17:17:37.559Z,5.26
2023-04-08T17:20:04.403Z,5.18
2023-04-08T17:22:31.193Z,4.82
2023-04-08T17:24:57.837Z,4.99
2023-04-08T17:27:24.540Z,5.18
2023-04-08T17:29:56.464Z,5.28
2023-04-08T17:32:23.844Z,4.98
2023-04-08T17:34:51.077Z,5.09
2023-04-08T17:37:17.782Z,5.08
2023-04-08T17:39:44.628Z,5.04
2023-04-08T17:42:11.518Z,5.00
2023-04-08T17:44:38.249Z,4.89
2023-04-08T17:47:05.006Z,4.89
2023-04-08T17:49:31.681Z,4.89
2023-04-08T17:51:58.348Z,4.94
2023-04-08T17:54:25.177Z,4.96
2023-04-08T17:56:51.880Z,5.15
2023-04-08T17:59:18.585Z,5.01
2023-04-08T18:01:45.465Z,5.17
2023-04-08T18:04:12.891Z,5.25
2023-04-08T18:06:39.767Z,5.08
2023-04-08T18:09:06.445Z,5.08
2023-04-08T18:11:33.094Z,4.91
2023-04-08T18:13:59.747Z,4.41
2023-04-08T18:16:26.446Z,4.34
2023-04-08T18:18:53.132Z,4.44
2023-04-08T18:21:19.845Z,4.43
2023-04-08T18:23:49.457Z,4.40
2023-04-08T18:26:16.407Z,4.01
2023-04-08T18:28:43.179Z,4.18
2023-04-08T18:31:09.910Z,4.19
2023-04-08T18:33:39.266Z,3.90
2023-04-08T18:36:08.516Z,3.86
2023-04-08T18:38:36.422Z,4.10
2023-04-08T18:41:05.943Z,4.21
2023-04-08T18:43:32.917Z,4.16
2023-04-08T18:45:59.882Z,4.17
2023-04-08T18:48:26.753Z,4.46
2023-04-08T18:50:53.661Z,4.83
2023-04-08T18:53:20.337Z,4.50
2023-04-08T18:55:47.032Z,4.25
2023-04-08T18:58:13.722Z,4.33
2023-04-08T19:00:43.949Z,4.28
2023-04-08T19:03:10.980Z,4.13
2023-04-08T19:05:37.856Z,4.40
2023-04-08T19:08:04.880Z,4.17
2023-04-08T19:10:31.947Z,4.14
2023-04-08T19:12:58.821Z,4.03
2023-04-08T19:15:25.759Z,4.14
2023-04-08T19:17:52.899Z,4.13
2023-04-08T19:20:19.639Z,4.03
2023-04-08T19:22:48.448Z,3.87
2023-04-08T19:25:15.132Z,3.68
2023-04-08T19:27:41.795Z,4.24
2023-04-08T19:30:08.726Z,3.97
2023-04-08T19:32:35.684Z,3.99
2023-04-08T19:35:02.413Z,4.33
2023-04-08T19:37:29.114Z,4.19
2023-04-08T19:39:56.067Z,4.04
2023-04-08T19:42:22.830Z,3.96
2023-04-08T19:44:49.490Z,3.96
2023-04-08T19:47:17.773Z,3.96
2023-04-08T19:49:44.466Z,4.05
2023-04-08T19:52:11.164Z,4.01
2023-04-08T19:54:37.934Z,4.20
2023-04-08T19:57:06.501Z,4.16
2023-04-08T19:59:33.195Z,4.14
2023-04-08T20:01:59.937Z,3.96
2023-04-08T20:04:26.770Z,4.44
2023-04-08T20:06:53.506Z,4.15
2023-04-08T20:09:20.188Z,4.33
2023-04-08T20:11:46.886Z,4.27
2023-04-08T20:14:13.581Z,4.30
2023-04-08T20:16:40.220Z,4.13
2023-04-08T20:19:06.881Z,4.27
2023-04-08T20:21:34.063Z,4.31
2023-04-08T20:24:01.083Z,4.71
2023-04-08T20:26:27.745Z,4.64
2023-04-08T20:28:57.050Z,4.29
2023-04-08T20:31:25.299Z,3.99
2023-04-08T20:33:51.985Z,3.93
2023-04-08T20:36:18.707Z,4.01
2023-04-08T20:38:45.533Z,4.23
2023-04-08T20:41:12.221Z,4.30
2023-04-08T20:43:39.650Z,4.32
2023-04-08T20:46:06.368Z,4.22
2023-04-08T20:48:33.415Z,4.46
2023-04-08T20:51:00.311Z,4.68
2023-04-08T20:53:27.556Z,4.50
2023-04-08T20:55:54.243Z,4.88
2023-04-08T20:58:20.948Z,4.76
2023-04-08T21:00:47.992Z,4.89
2023-04-08T21:03:15.156Z,4.41
2023-04-08T21:05:42.041Z,4.37
2023-04-08T21:08:08.886Z,4.13
2023-04-08T21:10:35.591Z,4.39
2023-04-08T21:13:02.257Z,4.20
2023-04-08T21:15:28.934Z,4.31
2023-04-08T21:17:55.835Z,4.19
2023-04-08T21:20:22.611Z,4.02
2023-04-08T21:22:49.280Z,4.04
2023-04-08T21:25:16.957Z,4.39
2023-04-08T21:27:43.744Z,4.24
2023-04-08T21:30:10.579Z,4.11
2023-04-08T21:32:37.277Z,4.31
2023-04-08T21:35:04.045Z,4.50
2023-04-08T21:37:30.858Z,4.61
2023-04-08T21:39:57.549Z,4.60
2023-04-08T21:42:25.273Z,4.45
2023-04-08T21:44:52.078Z,4.64
2023-04-08T21:47:18.848Z,4.77
2023-04-08T21:49:45.513Z,5.13
2023-04-08T21:52:12.161Z,4.76
2023-04-08T21:54:38.897Z,4.79
2023-04-08T21:57:05.540Z,4.85
2023-04-08T21:59:32.224Z,5.28
2023-04-08T22:01:59.867Z,5.44
2023-04-08T22:04:27.849Z,5.42
2023-04-08T22:06:54.751Z,5.12
2023-04-08T22:09:21.825Z,5.39
2023-04-08T22:11:48.529Z,5.44
2023-04-08T22:14:17.539Z,5.22
2023-04-08T22:16:45.069Z,5.19
2023-04-08T22:19:11.958Z,5.58
2023-04-08T22:21:38.653Z,5.49
2023-04-08T22:24:05.442Z,5.73
2023-04-08T22:26:32.164Z,5.36
2023-04-08T22:28:58.813Z,5.27
2023-04-08T22:31:25.690Z,5.07
2023-04-08T22:33:52.546Z,5.06
2023-04-08T22:36:19.242Z,4.97
2023-04-08T22:38:46.578Z,4.91
2023-04-08T22:41:17.949Z,5.05
2023-04-08T22:43:44.617Z,4.94
2023-04-08T22:46:11.774Z,4.92
2023-04-08T22:48:38.488Z,4.64
2023-04-08T22:51:05.261Z,4.73
2023-04-08T22:53:31.890Z,4.78
2023-04-08T22:55:58.576Z,4.99
2023-04-08T22:58:25.267Z,5.01
2023-04-08T23:00:51.938Z,5.10
2023-04-08T23:03:18.692Z,4.98
2023-04-08T23:05:45.554Z,5.14
2023-04-08T23:08:12.217Z,4.98
2023-04-08T23:10:38.920Z,4.45
2023-04-08T23:13:05.586Z,4.93
2023-04-08T23:15:32.265Z,4.87
2023-04-08T23:17:58.944Z,4.80
2023-04-08T23:20:25.689Z,5.09
2023-04-08T23:22:52.346Z,4.90
2023-04-08T23:25:19.023Z,4.71
2023-04-08T23:27:46.060Z,4.80
2023-04-08T23:30:12.797Z,5.19
2023-04-08T23:32:39.525Z,4.87
2023-04-08T23:35:06.270Z,5.13
2023-04-08T23:37:32.921Z,5.07
2023-04-08T23:39:59.633Z,4.92
2023-04-08T23:42:27.471Z,5.16
2023-04-08T23:44:54.936Z,4.18
2023-04-08T23:47:21.826Z,4.94
2023-04-08T23:49:48.585Z,4.97
2023-04-08T23:52:15.865Z,5.11
2023-04-08T23:54:42.534Z,5.01
2023-04-08T23:57:09.230Z,5.39
2023-04-08T23:59:36.020Z,5.27
